sensor_id;sensor_type;location;lat;lon;timestamp;P1;durP1;ratioP1;P2;durP2;ratioP2
51838;SDS011;37886;53.174;6.368;2023-08-17T00:01:37;565.50;;;511.35;;
51838;SDS011;37886;53.174;6.368;2023-08-17T00:04:03;556.90;;;503.15;;
51838;SDS011;37886;53.174;6.368;2023-08-17T00:06:28;548.92;;;493.92;;
51838;SDS011;37886;53.174;6.368;2023-08-17T00:08:54;584.13;;;524.75;;
51838;SDS011;37886;53.174;6.368;2023-08-17T00:11:20;578.42;;;521.78;;
51838;SDS011;37886;53.174;6.368;2023-08-17T00:13:46;581.55;;;524.83;;
51838;SDS011;37886;53.174;6.368;2023-08-17T00:16:12;561.40;;;507.23;;
51838;SDS011;37886;53.174;6.368;2023-08-17T00:18:38;577.17;;;520.50;;
51838;SDS011;37886;53.174;6.368;2023-08-17T00:21:04;596.80;;;537.15;;
51838;SDS011;37886;53.174;6.368;2023-08-17T00:23:29;639.20;;;574.83;;
51838;SDS011;37886;53.174;6.368;2023-08-17T00:25:55;562.70;;;505.15;;
51838;SDS011;37886;53.174;6.368;2023-08-17T00:28:21;560.45;;;504.73;;
51838;SDS011;37886;53.174;6.368;2023-08-17T00:30:46;560.85;;;506.13;;
51838;SDS011;37886;53.174;6.368;2023-08-17T00:33:12;543.67;;;489.85;;
51838;SDS011;37886;53.174;6.368;2023-08-17T00:35:38;544.65;;;490.45;;
51838;SDS011;37886;53.174;6.368;2023-08-17T00:38:03;538.45;;;486.73;;
51838;SDS011;37886;53.174;6.368;2023-08-17T00:40:29;627.53;;;565.83;;
51838;SDS011;37886;53.174;6.368;2023-08-17T00:42:55;588.85;;;530.33;;
51838;SDS011;37886;53.174;6.368;2023-08-17T00:45:21;636.40;;;572.70;;
51838;SDS011;37886;53.174;6.368;2023-08-17T00:47:48;588.22;;;529.97;;
51838;SDS011;37886;53.174;6.368;2023-08-17T00:50:14;550.95;;;497.00;;
51838;SDS011;37886;53.174;6.368;2023-08-17T00:52:41;608.30;;;549.53;;
51838;SDS011;37886;53.174;6.368;2023-08-17T00:55:07;578.53;;;521.85;;
51838;SDS011;37886;53.174;6.368;2023-08-17T00:57:36;633.85;;;573.58;;
51838;SDS011;37886;53.174;6.368;2023-08-17T01:00:02;622.33;;;562.90;;
51838;SDS011;37886;53.174;6.368;2023-08-17T01:02:29;558.33;;;505.50;;
51838;SDS011;37886;53.174;6.368;2023-08-17T01:04:56;632.90;;;569.58;;
51838;SDS011;37886;53.174;6.368;2023-08-17T01:07:21;617.35;;;557.03;;
51838;SDS011;37886;53.174;6.368;2023-08-17T01:09:47;611.08;;;552.63;;
51838;SDS011;37886;53.174;6.368;2023-08-17T01:12:15;669.97;;;604.95;;
51838;SDS011;37886;53.174;6.368;2023-08-17T01:17:37;637.50;;;573.38;;
51838;SDS011;37886;53.174;6.368;2023-08-17T01:20:10;565.38;;;508.67;;
51838;SDS011;37886;53.174;6.368;2023-08-17T01:22:40;557.95;;;501.00;;
51838;SDS011;37886;53.174;6.368;2023-08-17T01:25:08;554.80;;;496.60;;
51838;SDS011;37886;53.174;6.368;2023-08-17T01:27:39;567.08;;;508.45;;
51838;SDS011;37886;53.174;6.368;2023-08-17T01:30:07;558.95;;;500.90;;
51838;SDS011;37886;53.174;6.368;2023-08-17T01:32:39;538.25;;;482.25;;
51838;SDS011;37886;53.174;6.368;2023-08-17T01:35:14;571.20;;;511.13;;
51838;SDS011;37886;53.174;6.368;2023-08-17T01:37:41;555.67;;;496.75;;
51838;SDS011;37886;53.174;6.368;2023-08-17T01:40:09;600.38;;;535.70;;
51838;SDS011;37886;53.174;6.368;2023-08-17T01:42:37;582.15;;;511.40;;
51838;SDS011;37886;53.174;6.368;2023-08-17T01:45:05;563.72;;;502.23;;
51838;SDS011;37886;53.174;6.368;2023-08-17T01:47:31;560.13;;;500.30;;
51838;SDS011;37886;53.174;6.368;2023-08-17T01:49:56;587.00;;;521.92;;
51838;SDS011;37886;53.174;6.368;2023-08-17T01:52:28;593.42;;;526.33;;
51838;SDS011;37886;53.174;6.368;2023-08-17T01:54:54;594.25;;;529.67;;
51838;SDS011;37886;53.174;6.368;2023-08-17T01:57:19;620.25;;;538.40;;
51838;SDS011;37886;53.174;6.368;2023-08-17T01:59:45;608.65;;;538.45;;
51838;SDS011;37886;53.174;6.368;2023-08-17T02:02:11;618.65;;;546.80;;
51838;SDS011;37886;53.174;6.368;2023-08-17T02:04:39;614.20;;;538.80;;
51838;SDS011;37886;53.174;6.368;2023-08-17T02:07:05;648.75;;;571.85;;
51838;SDS011;37886;53.174;6.368;2023-08-17T02:09:31;654.55;;;567.13;;
51838;SDS011;37886;53.174;6.368;2023-08-17T02:11:56;672.67;;;564.28;;
51838;SDS011;37886;53.174;6.368;2023-08-17T02:14:22;726.28;;;608.60;;
51838;SDS011;37886;53.174;6.368;2023-08-17T02:16:48;685.60;;;585.63;;
51838;SDS011;37886;53.174;6.368;2023-08-17T02:19:14;720.40;;;595.08;;
51838;SDS011;37886;53.174;6.368;2023-08-17T02:21:39;731.10;;;604.53;;
51838;SDS011;37886;53.174;6.368;2023-08-17T02:24:05;745.53;;;603.88;;
51838;SDS011;37886;53.174;6.368;2023-08-17T02:26:31;639.15;;;552.28;;
51838;SDS011;37886;53.174;6.368;2023-08-17T02:28:57;583.95;;;517.60;;
51838;SDS011;37886;53.174;6.368;2023-08-17T02:31:23;590.55;;;526.22;;
51838;SDS011;37886;53.174;6.368;2023-08-17T02:33:48;552.80;;;493.23;;
51838;SDS011;37886;53.174;6.368;2023-08-17T02:36:14;579.65;;;517.95;;
51838;SDS011;37886;53.174;6.368;2023-08-17T02:38:40;547.75;;;489.10;;
51838;SDS011;37886;53.174;6.368;2023-08-17T02:41:05;545.53;;;486.70;;
51838;SDS011;37886;53.174;6.368;2023-08-17T02:43:31;576.03;;;513.28;;
51838;SDS011;37886;53.174;6.368;2023-08-17T02:45:57;574.80;;;513.92;;
51838;SDS011;37886;53.174;6.368;2023-08-17T02:48:24;647.03;;;559.20;;
51838;SDS011;37886;53.174;6.368;2023-08-17T02:50:50;618.92;;;539.08;;
51838;SDS011;37886;53.174;6.368;2023-08-17T02:53:16;721.35;;;608.08;;
51838;SDS011;37886;53.174;6.368;2023-08-17T02:55:41;683.35;;;588.55;;
51838;SDS011;37886;53.174;6.368;2023-08-17T02:58:07;702.33;;;594.22;;
51838;SDS011;37886;53.174;6.368;2023-08-17T03:00:33;679.30;;;580.88;;
51838;SDS011;37886;53.174;6.368;2023-08-17T03:02:58;618.30;;;539.28;;
51838;SDS011;37886;53.174;6.368;2023-08-17T03:05:24;676.42;;;577.45;;
51838;SDS011;37886;53.174;6.368;2023-08-17T03:07:50;702.03;;;594.00;;
51838;SDS011;37886;53.174;6.368;2023-08-17T03:10:16;646.30;;;565.83;;
51838;SDS011;37886;53.174;6.368;2023-08-17T03:12:42;720.63;;;601.58;;
51838;SDS011;37886;53.174;6.368;2023-08-17T03:15:08;690.72;;;594.20;;
51838;SDS011;37886;53.174;6.368;2023-08-17T03:17:34;834.75;;;662.58;;
51838;SDS011;37886;53.174;6.368;2023-08-17T03:19:59;873.20;;;680.75;;
51838;SDS011;37886;53.174;6.368;2023-08-17T03:22:25;900.83;;;687.22;;
51838;SDS011;37886;53.174;6.368;2023-08-17T03:24:51;874.00;;;686.03;;
51838;SDS011;37886;53.174;6.368;2023-08-17T03:27:19;888.30;;;674.00;;
51838;SDS011;37886;53.174;6.368;2023-08-17T03:29:45;833.90;;;660.17;;
51838;SDS011;37886;53.174;6.368;2023-08-17T03:32:10;914.45;;;716.13;;
51838;SDS011;37886;53.174;6.368;2023-08-17T03:34:36;885.78;;;679.13;;
51838;SDS011;37886;53.174;6.368;2023-08-17T03:37:03;906.80;;;690.33;;
51838;SDS011;37886;53.174;6.368;2023-08-17T03:39:29;833.50;;;670.22;;
51838;SDS011;37886;53.174;6.368;2023-08-17T03:41:56;896.78;;;686.30;;
51838;SDS011;37886;53.174;6.368;2023-08-17T03:44:21;914.42;;;689.85;;
51838;SDS011;37886;53.174;6.368;2023-08-17T03:46:47;888.10;;;694.78;;
51838;SDS011;37886;53.174;6.368;2023-08-17T03:49:13;847.80;;;677.75;;
51838;SDS011;37886;53.174;6.368;2023-08-17T03:51:39;888.25;;;702.47;;
51838;SDS011;37886;53.174;6.368;2023-08-17T03:54:05;880.63;;;687.60;;
51838;SDS011;37886;53.174;6.368;2023-08-17T03:56:31;891.30;;;704.33;;
51838;SDS011;37886;53.174;6.368;2023-08-17T03:58:56;895.25;;;657.53;;
51838;SDS011;37886;53.174;6.368;2023-08-17T04:01:22;848.53;;;667.40;;
51838;SDS011;37886;53.174;6.368;2023-08-17T04:03:48;856.88;;;653.75;;
51838;SDS011;37886;53.174;6.368;2023-08-17T04:06:13;890.70;;;677.08;;
51838;SDS011;37886;53.174;6.368;2023-08-17T04:08:39;894.50;;;676.55;;
51838;SDS011;37886;53.174;6.368;2023-08-17T04:11:05;870.72;;;657.78;;
51838;SDS011;37886;53.174;6.368;2023-08-17T04:13:31;883.47;;;661.10;;
51838;SDS011;37886;53.174;6.368;2023-08-17T04:15:57;852.33;;;665.55;;
51838;SDS011;37886;53.174;6.368;2023-08-17T04:18:23;908.03;;;685.08;;
51838;SDS011;37886;53.174;6.368;2023-08-17T04:20:48;946.67;;;705.53;;
51838;SDS011;37886;53.174;6.368;2023-08-17T04:23:14;896.97;;;675.63;;
51838;SDS011;37886;53.174;6.368;2023-08-17T04:25:40;897.25;;;708.45;;
51838;SDS011;37886;53.174;6.368;2023-08-17T04:28:06;864.03;;;674.33;;
51838;SDS011;37886;53.174;6.368;2023-08-17T04:30:32;914.10;;;670.78;;
51838;SDS011;37886;53.174;6.368;2023-08-17T04:32:58;891.70;;;677.60;;
51838;SDS011;37886;53.174;6.368;2023-08-17T04:35:23;903.75;;;689.47;;
51838;SDS011;37886;53.174;6.368;2023-08-17T04:37:49;864.35;;;642.22;;
51838;SDS011;37886;53.174;6.368;2023-08-17T04:40:15;855.15;;;622.25;;
51838;SDS011;37886;53.174;6.368;2023-08-17T04:42:41;867.53;;;648.22;;
51838;SDS011;37886;53.174;6.368;2023-08-17T04:45:06;914.50;;;691.50;;
51838;SDS011;37886;53.174;6.368;2023-08-17T04:47:32;855.58;;;627.45;;
51838;SDS011;37886;53.174;6.368;2023-08-17T04:49:58;888.50;;;657.03;;
51838;SDS011;37886;53.174;6.368;2023-08-17T04:52:24;848.35;;;629.88;;
51838;SDS011;37886;53.174;6.368;2023-08-17T04:54:50;875.70;;;655.83;;
51838;SDS011;37886;53.174;6.368;2023-08-17T04:57:15;887.50;;;660.92;;
51838;SDS011;37886;53.174;6.368;2023-08-17T04:59:42;843.97;;;638.60;;
51838;SDS011;37886;53.174;6.368;2023-08-17T05:02:08;819.35;;;622.00;;
51838;SDS011;37886;53.174;6.368;2023-08-17T05:04:34;852.00;;;647.42;;
51838;SDS011;37886;53.174;6.368;2023-08-17T05:07:00;867.53;;;662.42;;
51838;SDS011;37886;53.174;6.368;2023-08-17T05:09:26;821.72;;;627.08;;
51838;SDS011;37886;53.174;6.368;2023-08-17T05:11:52;873.35;;;660.13;;
51838;SDS011;37886;53.174;6.368;2023-08-17T05:14:18;838.33;;;636.83;;
51838;SDS011;37886;53.174;6.368;2023-08-17T05:16:43;902.22;;;675.78;;
51838;SDS011;37886;53.174;6.368;2023-08-17T05:19:09;866.80;;;644.70;;
51838;SDS011;37886;53.174;6.368;2023-08-17T05:21:35;776.55;;;593.80;;
51838;SDS011;37886;53.174;6.368;2023-08-17T05:24:01;860.08;;;635.22;;
51838;SDS011;37886;53.174;6.368;2023-08-17T05:26:27;863.20;;;627.95;;
51838;SDS011;37886;53.174;6.368;2023-08-17T05:28:53;894.53;;;667.97;;
51838;SDS011;37886;53.174;6.368;2023-08-17T05:31:18;927.95;;;672.30;;
51838;SDS011;37886;53.174;6.368;2023-08-17T05:33:44;853.60;;;634.88;;
51838;SDS011;37886;53.174;6.368;2023-08-17T05:36:10;918.22;;;665.42;;
51838;SDS011;37886;53.174;6.368;2023-08-17T05:38:36;833.28;;;658.45;;
51838;SDS011;37886;53.174;6.368;2023-08-17T05:41:02;886.10;;;679.78;;
51838;SDS011;37886;53.174;6.368;2023-08-17T05:43:27;901.88;;;669.42;;
51838;SDS011;37886;53.174;6.368;2023-08-17T05:45:53;929.58;;;692.42;;
51838;SDS011;37886;53.174;6.368;2023-08-17T05:48:19;880.42;;;647.80;;
51838;SDS011;37886;53.174;6.368;2023-08-17T05:50:46;869.15;;;650.92;;
51838;SDS011;37886;53.174;6.368;2023-08-17T05:53:12;900.40;;;670.33;;
51838;SDS011;37886;53.174;6.368;2023-08-17T05:55:37;898.92;;;676.75;;
51838;SDS011;37886;53.174;6.368;2023-08-17T05:58:03;850.13;;;656.45;;
51838;SDS011;37886;53.174;6.368;2023-08-17T06:00:29;875.85;;;676.95;;
51838;SDS011;37886;53.174;6.368;2023-08-17T06:02:55;832.83;;;652.42;;
51838;SDS011;37886;53.174;6.368;2023-08-17T06:05:26;863.20;;;655.13;;
51838;SDS011;37886;53.174;6.368;2023-08-17T06:07:58;883.78;;;631.83;;
51838;SDS011;37886;53.174;6.368;2023-08-17T06:10:24;898.22;;;667.78;;
51838;SDS011;37886;53.174;6.368;2023-08-17T06:12:51;836.05;;;634.50;;
51838;SDS011;37886;53.174;6.368;2023-08-17T06:15:18;851.15;;;653.28;;
51838;SDS011;37886;53.174;6.368;2023-08-17T06:17:44;855.30;;;638.88;;
51838;SDS011;37886;53.174;6.368;2023-08-17T06:20:10;808.40;;;637.78;;
51838;SDS011;37886;53.174;6.368;2023-08-17T06:22:37;732.58;;;606.67;;
51838;SDS011;37886;53.174;6.368;2023-08-17T06:25:03;788.92;;;605.15;;
51838;SDS011;37886;53.174;6.368;2023-08-17T06:27:30;804.88;;;617.55;;
51838;SDS011;37886;53.174;6.368;2023-08-17T06:29:56;733.25;;;587.10;;
51838;SDS011;37886;53.174;6.368;2023-08-17T06:32:22;865.55;;;646.70;;
51838;SDS011;37886;53.174;6.368;2023-08-17T06:34:48;765.28;;;596.65;;
51838;SDS011;37886;53.174;6.368;2023-08-17T06:37:14;760.80;;;607.00;;
51838;SDS011;37886;53.174;6.368;2023-08-17T06:39:40;838.38;;;635.03;;
51838;SDS011;37886;53.174;6.368;2023-08-17T06:42:06;826.42;;;622.42;;
51838;SDS011;37886;53.174;6.368;2023-08-17T06:44:31;803.78;;;617.22;;
51838;SDS011;37886;53.174;6.368;2023-08-17T06:46:57;702.63;;;571.15;;
51838;SDS011;37886;53.174;6.368;2023-08-17T06:49:24;679.90;;;547.60;;
51838;SDS011;37886;53.174;6.368;2023-08-17T06:51:50;591.38;;;528.45;;
51838;SDS011;37886;53.174;6.368;2023-08-17T06:54:15;641.03;;;575.00;;
51838;SDS011;37886;53.174;6.368;2023-08-17T06:56:41;559.63;;;500.70;;
51838;SDS011;37886;53.174;6.368;2023-08-17T06:59:07;587.30;;;528.75;;
51838;SDS011;37886;53.174;6.368;2023-08-17T07:01:32;528.85;;;473.92;;
51838;SDS011;37886;53.174;6.368;2023-08-17T07:03:58;555.78;;;501.63;;
51838;SDS011;37886;53.174;6.368;2023-08-17T07:06:24;598.50;;;538.53;;
51838;SDS011;37886;53.174;6.368;2023-08-17T07:08:50;576.17;;;520.67;;
51838;SDS011;37886;53.174;6.368;2023-08-17T07:11:17;665.40;;;602.30;;
51838;SDS011;37886;53.174;6.368;2023-08-17T07:13:43;712.70;;;643.00;;
51838;SDS011;37886;53.174;6.368;2023-08-17T07:16:10;627.22;;;571.00;;
51838;SDS011;37886;53.174;6.368;2023-08-17T07:18:36;640.05;;;581.30;;
51838;SDS011;37886;53.174;6.368;2023-08-17T07:21:02;503.05;;;459.55;;
51838;SDS011;37886;53.174;6.368;2023-08-17T07:23:27;604.38;;;551.70;;
51838;SDS011;37886;53.174;6.368;2023-08-17T07:25:53;584.72;;;533.55;;
51838;SDS011;37886;53.174;6.368;2023-08-17T07:28:19;537.30;;;490.70;;
51838;SDS011;37886;53.174;6.368;2023-08-17T07:30:45;636.92;;;581.13;;
51838;SDS011;37886;53.174;6.368;2023-08-17T07:33:10;662.70;;;604.42;;
51838;SDS011;37886;53.174;6.368;2023-08-17T07:35:36;677.50;;;616.92;;
51838;SDS011;37886;53.174;6.368;2023-08-17T07:38:02;729.45;;;663.08;;
51838;SDS011;37886;53.174;6.368;2023-08-17T07:40:27;672.28;;;613.20;;
51838;SDS011;37886;53.174;6.368;2023-08-17T07:42:53;715.35;;;651.15;;
51838;SDS011;37886;53.174;6.368;2023-08-17T07:45:19;767.15;;;692.92;;
51838;SDS011;37886;53.174;6.368;2023-08-17T07:47:45;632.38;;;577.80;;
51838;SDS011;37886;53.174;6.368;2023-08-17T07:50:10;696.72;;;634.85;;
51838;SDS011;37886;53.174;6.368;2023-08-17T07:52:36;744.00;;;678.00;;
51838;SDS011;37886;53.174;6.368;2023-08-17T07:55:02;722.50;;;658.65;;
51838;SDS011;37886;53.174;6.368;2023-08-17T07:57:28;745.88;;;677.50;;
51838;SDS011;37886;53.174;6.368;2023-08-17T07:59:54;655.65;;;599.28;;
51838;SDS011;37886;53.174;6.368;2023-08-17T08:02:19;698.20;;;637.47;;
51838;SDS011;37886;53.174;6.368;2023-08-17T08:04:45;723.67;;;659.88;;
51838;SDS011;37886;53.174;6.368;2023-08-17T08:07:11;632.08;;;578.67;;
51838;SDS011;37886;53.174;6.368;2023-08-17T08:09:37;633.03;;;579.17;;
51838;SDS011;37886;53.174;6.368;2023-08-17T08:12:02;720.83;;;659.17;;
51838;SDS011;37886;53.174;6.368;2023-08-17T08:14:28;640.85;;;587.35;;
51838;SDS011;37886;53.174;6.368;2023-08-17T08:16:54;655.05;;;599.05;;
51838;SDS011;37886;53.174;6.368;2023-08-17T08:19:20;712.95;;;652.08;;
51838;SDS011;37886;53.174;6.368;2023-08-17T08:21:46;679.60;;;621.50;;
51838;SDS011;37886;53.174;6.368;2023-08-17T08:24:11;709.47;;;650.15;;
51838;SDS011;37886;53.174;6.368;2023-08-17T08:26:37;752.70;;;688.65;;
51838;SDS011;37886;53.174;6.368;2023-08-17T08:29:03;731.58;;;670.13;;
51838;SDS011;37886;53.174;6.368;2023-08-17T08:31:29;725.55;;;664.08;;
51838;SDS011;37886;53.174;6.368;2023-08-17T08:33:55;665.83;;;609.60;;
51838;SDS011;37886;53.174;6.368;2023-08-17T08:36:21;748.63;;;683.58;;
51838;SDS011;37886;53.174;6.368;2023-08-17T08:38:46;689.80;;;631.63;;
51838;SDS011;37886;53.174;6.368;2023-08-17T08:41:12;658.40;;;602.33;;
51838;SDS011;37886;53.174;6.368;2023-08-17T08:43:38;711.78;;;651.80;;
51838;SDS011;37886;53.174;6.368;2023-08-17T08:46:04;771.58;;;705.47;;
51838;SDS011;37886;53.174;6.368;2023-08-17T08:48:31;737.55;;;675.92;;
51838;SDS011;37886;53.174;6.368;2023-08-17T08:50:59;594.85;;;545.75;;
51838;SDS011;37886;53.174;6.368;2023-08-17T08:53:34;625.35;;;572.80;;
51838;SDS011;37886;53.174;6.368;2023-08-17T08:58:36;602.88;;;553.42;;
51838;SDS011;37886;53.174;6.368;2023-08-17T09:01:03;669.42;;;615.25;;
51838;SDS011;37886;53.174;6.368;2023-08-17T09:03:29;742.53;;;680.08;;
51838;SDS011;37886;53.174;6.368;2023-08-17T09:05:57;666.50;;;611.10;;
51838;SDS011;37886;53.174;6.368;2023-08-17T09:08:25;728.97;;;668.55;;
51838;SDS011;37886;53.174;6.368;2023-08-17T09:10:54;654.75;;;599.40;;
51838;SDS011;37886;53.174;6.368;2023-08-17T09:13:20;730.05;;;668.90;;
51838;SDS011;37886;53.174;6.368;2023-08-17T09:15:46;630.13;;;578.65;;
51838;SDS011;37886;53.174;6.368;2023-08-17T09:18:11;706.30;;;647.50;;
51838;SDS011;37886;53.174;6.368;2023-08-17T09:23:14;741.10;;;678.83;;
51838;SDS011;37886;53.174;6.368;2023-08-17T09:25:42;657.13;;;603.72;;
51838;SDS011;37886;53.174;6.368;2023-08-17T09:28:09;709.00;;;647.50;;
51838;SDS011;37886;53.174;6.368;2023-08-17T09:30:56;627.05;;;575.75;;
51838;SDS011;37886;53.174;6.368;2023-08-17T09:33:23;759.60;;;696.17;;
51838;SDS011;37886;53.174;6.368;2023-08-17T09:35:50;716.95;;;654.80;;
51838;SDS011;37886;53.174;6.368;2023-08-17T09:38:18;744.17;;;683.75;;
51838;SDS011;37886;53.174;6.368;2023-08-17T09:40:44;653.60;;;600.42;;
51838;SDS011;37886;53.174;6.368;2023-08-17T09:43:10;747.15;;;684.92;;
51838;SDS011;37886;53.174;6.368;2023-08-17T09:45:37;714.08;;;655.97;;
51838;SDS011;37886;53.174;6.368;2023-08-17T09:48:04;732.75;;;674.03;;
51838;SDS011;37886;53.174;6.368;2023-08-17T09:50:33;757.05;;;694.30;;
51838;SDS011;37886;53.174;6.368;2023-08-17T09:52:58;725.17;;;661.70;;
51838;SDS011;37886;53.174;6.368;2023-08-17T09:55:24;714.75;;;656.83;;
51838;SDS011;37886;53.174;6.368;2023-08-17T09:57:50;738.65;;;679.30;;
51838;SDS011;37886;53.174;6.368;2023-08-17T10:00:19;548.50;;;504.52;;
51838;SDS011;37886;53.174;6.368;2023-08-17T10:02:47;624.08;;;573.25;;
51838;SDS011;37886;53.174;6.368;2023-08-17T10:05:17;702.72;;;644.65;;
51838;SDS011;37886;53.174;6.368;2023-08-17T10:07:46;698.95;;;642.58;;
51838;SDS011;37886;53.174;6.368;2023-08-17T10:10:24;728.30;;;668.72;;
51838;SDS011;37886;53.174;6.368;2023-08-17T10:13:03;760.33;;;694.50;;
51838;SDS011;37886;53.174;6.368;2023-08-17T10:15:32;733.80;;;675.30;;
51838;SDS011;37886;53.174;6.368;2023-08-17T10:18:16;658.90;;;604.90;;
51838;SDS011;37886;53.174;6.368;2023-08-17T10:21:13;590.22;;;541.42;;
51838;SDS011;37886;53.174;6.368;2023-08-17T10:23:45;662.55;;;609.03;;
51838;SDS011;37886;53.174;6.368;2023-08-17T10:26:11;645.92;;;592.15;;
51838;SDS011;37886;53.174;6.368;2023-08-17T10:28:38;743.38;;;683.45;;
51838;SDS011;37886;53.174;6.368;2023-08-17T10:31:04;703.92;;;644.83;;
51838;SDS011;37886;53.174;6.368;2023-08-17T10:33:30;737.17;;;678.35;;
51838;SDS011;37886;53.174;6.368;2023-08-17T10:35:56;685.15;;;629.17;;
51838;SDS011;37886;53.174;6.368;2023-08-17T10:38:22;705.45;;;646.38;;
51838;SDS011;37886;53.174;6.368;2023-08-17T10:41:07;581.90;;;534.67;;
51838;SDS011;37886;53.174;6.368;2023-08-17T10:43:55;653.28;;;599.00;;
51838;SDS011;37886;53.174;6.368;2023-08-17T10:46:36;528.05;;;486.80;;
51838;SDS011;37886;53.174;6.368;2023-08-17T10:49:06;673.85;;;619.22;;
51838;SDS011;37886;53.174;6.368;2023-08-17T10:52:10;636.45;;;585.55;;
51838;SDS011;37886;53.174;6.368;2023-08-17T10:54:39;633.20;;;582.45;;
51838;SDS011;37886;53.174;6.368;2023-08-17T11:00:17;481.23;;;443.98;;
51838;SDS011;37886;53.174;6.368;2023-08-17T11:05:33;504.83;;;465.67;;
51838;SDS011;37886;53.174;6.368;2023-08-17T11:10:38;531.35;;;491.75;;
51838;SDS011;37886;53.174;6.368;2023-08-17T11:13:04;580.10;;;534.90;;
51838;SDS011;37886;53.174;6.368;2023-08-17T11:15:34;522.08;;;482.13;;
51838;SDS011;37886;53.174;6.368;2023-08-17T11:18:07;523.28;;;482.13;;
51838;SDS011;37886;53.174;6.368;2023-08-17T11:20:34;533.17;;;491.33;;
51838;SDS011;37886;53.174;6.368;2023-08-17T11:23:01;625.42;;;574.40;;
51838;SDS011;37886;53.174;6.368;2023-08-17T11:25:27;537.42;;;494.30;;
51838;SDS011;37886;53.174;6.368;2023-08-17T11:27:54;495.15;;;458.75;;
51838;SDS011;37886;53.174;6.368;2023-08-17T11:30:20;531.97;;;490.52;;
51838;SDS011;37886;53.174;6.368;2023-08-17T11:32:50;504.60;;;465.25;;
51838;SDS011;37886;53.174;6.368;2023-08-17T11:35:17;484.88;;;447.42;;
51838;SDS011;37886;53.174;6.368;2023-08-17T11:37:43;513.55;;;474.25;;
51838;SDS011;37886;53.174;6.368;2023-08-17T11:40:12;595.72;;;548.03;;
51838;SDS011;37886;53.174;6.368;2023-08-17T11:42:38;552.17;;;507.38;;
51838;SDS011;37886;53.174;6.368;2023-08-17T11:45:04;677.40;;;622.80;;
51838;SDS011;37886;53.174;6.368;2023-08-17T11:47:31;679.38;;;622.67;;
51838;SDS011;37886;53.174;6.368;2023-08-17T11:50:04;542.20;;;499.20;;
51838;SDS011;37886;53.174;6.368;2023-08-17T11:52:32;515.00;;;475.30;;
51838;SDS011;37886;53.174;6.368;2023-08-17T11:54:58;580.00;;;533.05;;
51838;SDS011;37886;53.174;6.368;2023-08-17T11:57:25;506.35;;;467.17;;
51838;SDS011;37886;53.174;6.368;2023-08-17T11:59:57;484.92;;;447.73;;
51838;SDS011;37886;53.174;6.368;2023-08-17T12:02:24;504.70;;;464.80;;
51838;SDS011;37886;53.174;6.368;2023-08-17T12:04:51;498.73;;;460.02;;
51838;SDS011;37886;53.174;6.368;2023-08-17T12:07:18;676.70;;;618.58;;
51838;SDS011;37886;53.174;6.368;2023-08-17T12:09:47;673.70;;;617.67;;
51838;SDS011;37886;53.174;6.368;2023-08-17T12:12:17;517.53;;;475.23;;
51838;SDS011;37886;53.174;6.368;2023-08-17T12:14:44;588.95;;;542.15;;
51838;SDS011;37886;53.174;6.368;2023-08-17T12:17:15;584.40;;;536.72;;
51838;SDS011;37886;53.174;6.368;2023-08-17T12:19:42;497.73;;;457.83;;
51838;SDS011;37886;53.174;6.368;2023-08-17T12:22:10;559.25;;;514.47;;
51838;SDS011;37886;53.174;6.368;2023-08-17T12:24:37;536.72;;;493.83;;
51838;SDS011;37886;53.174;6.368;2023-08-17T12:27:04;660.55;;;604.10;;
51838;SDS011;37886;53.174;6.368;2023-08-17T12:29:31;551.00;;;507.40;;
51838;SDS011;37886;53.174;6.368;2023-08-17T12:31:58;529.20;;;488.70;;
51838;SDS011;37886;53.174;6.368;2023-08-17T12:34:25;743.78;;;681.78;;
51838;SDS011;37886;53.174;6.368;2023-08-17T12:36:51;612.15;;;562.20;;
51838;SDS011;37886;53.174;6.368;2023-08-17T12:39:17;611.05;;;565.38;;
51838;SDS011;37886;53.174;6.368;2023-08-17T12:41:43;567.75;;;524.80;;
51838;SDS011;37886;53.174;6.368;2023-08-17T12:44:09;545.08;;;504.15;;
51838;SDS011;37886;53.174;6.368;2023-08-17T12:46:38;551.97;;;508.90;;
51838;SDS011;37886;53.174;6.368;2023-08-17T12:49:07;552.22;;;510.15;;
51838;SDS011;37886;53.174;6.368;2023-08-17T12:51:33;589.30;;;543.03;;
51838;SDS011;37886;53.174;6.368;2023-08-17T12:53:59;588.53;;;543.92;;
51838;SDS011;37886;53.174;6.368;2023-08-17T12:56:24;572.13;;;529.13;;
51838;SDS011;37886;53.174;6.368;2023-08-17T12:58:50;552.92;;;510.50;;
51838;SDS011;37886;53.174;6.368;2023-08-17T13:01:16;527.78;;;486.25;;
51838;SDS011;37886;53.174;6.368;2023-08-17T13:03:43;548.83;;;504.13;;
51838;SDS011;37886;53.174;6.368;2023-08-17T13:06:09;603.75;;;554.72;;
51838;SDS011;37886;53.174;6.368;2023-08-17T13:08:35;593.55;;;545.72;;
51838;SDS011;37886;53.174;6.368;2023-08-17T13:11:00;554.60;;;510.15;;
51838;SDS011;37886;53.174;6.368;2023-08-17T13:13:26;635.58;;;583.40;;
51838;SDS011;37886;53.174;6.368;2023-08-17T13:15:52;641.25;;;588.45;;
51838;SDS011;37886;53.174;6.368;2023-08-17T13:18:18;552.65;;;507.98;;
51838;SDS011;37886;53.174;6.368;2023-08-17T13:20:43;717.55;;;658.33;;
51838;SDS011;37886;53.174;6.368;2023-08-17T13:23:10;647.45;;;594.50;;
51838;SDS011;37886;53.174;6.368;2023-08-17T13:25:36;666.08;;;612.05;;
51838;SDS011;37886;53.174;6.368;2023-08-17T13:28:02;583.38;;;535.70;;
51838;SDS011;37886;53.174;6.368;2023-08-17T13:30:28;630.20;;;578.95;;
51838;SDS011;37886;53.174;6.368;2023-08-17T13:32:54;663.90;;;609.15;;
51838;SDS011;37886;53.174;6.368;2023-08-17T13:35:20;718.45;;;658.42;;
51838;SDS011;37886;53.174;6.368;2023-08-17T13:37:50;569.78;;;524.15;;
51838;SDS011;37886;53.174;6.368;2023-08-17T13:40:17;668.90;;;612.70;;
51838;SDS011;37886;53.174;6.368;2023-08-17T13:42:43;828.15;;;757.95;;
51838;SDS011;37886;53.174;6.368;2023-08-17T13:45:09;724.75;;;663.38;;
51838;SDS011;37886;53.174;6.368;2023-08-17T13:47:35;768.35;;;700.55;;
51838;SDS011;37886;53.174;6.368;2023-08-17T13:50:00;763.10;;;698.05;;
51838;SDS011;37886;53.174;6.368;2023-08-17T13:52:28;763.20;;;698.80;;
51838;SDS011;37886;53.174;6.368;2023-08-17T13:54:54;800.92;;;732.70;;
51838;SDS011;37886;53.174;6.368;2023-08-17T13:57:20;788.78;;;721.67;;
51838;SDS011;37886;53.174;6.368;2023-08-17T13:59:45;752.15;;;689.42;;
51838;SDS011;37886;53.174;6.368;2023-08-17T14:02:11;774.63;;;708.85;;
51838;SDS011;37886;53.174;6.368;2023-08-17T14:04:37;798.95;;;728.83;;
51838;SDS011;37886;53.174;6.368;2023-08-17T14:07:03;763.13;;;700.85;;
51838;SDS011;37886;53.174;6.368;2023-08-17T14:09:29;779.80;;;712.97;;
51838;SDS011;37886;53.174;6.368;2023-08-17T14:11:55;799.35;;;731.15;;